Aérodrome :
LOGIN :

S'inscrire | Disclaimer

   EN    FR    IT 

 










Légende :    VFR   VFR Marginal   IFR   IFR Intensif   IFR Très Intensif
Visi : 
Plafond : 
>= 8 km
>= 3000ft
5 à 8 km
1000 à 3000 ft
1500m à 5 km
500 à 1000 ft
800 à 1500m
200 à 500 ft
< 800m
< 200 ft
Symboles :   Orages  Brouillard  Fortes neiges  Fortes précipitations  Vent > 20 kt
SIGMETs :   Divers  Orages  Givrage  Turbulence  Onde Orograph.  Cendres Volcan.







- Altitude de l'aérodrome : 14 ft
- Code IATA : BRE


EDDW - Bremen Neuenland

DERNIER METAR :
  • 220420Z 09003KT CAVOK 07/05 Q1017 NOSIG

METARs EXPIRÉS :
  • 220350Z 08004KT CAVOK 07/05 Q1017 NOSIG
  • 220320Z 08003KT CAVOK 08/05 Q1017
  • 220250Z 09002KT CAVOK 07/04 Q1018
  • 220220Z 07003KT CAVOK 07/04 Q1018
  • 220150Z 16003KT CAVOK 07/06 Q1018

TAF TAF EDDW
Valide du 22 à 00h jusqu'au 23 à 00h UTC


212300Z 2200/2224 VRB03KT CAVOK
TEMPO 2203/2205 2000 BCFG
BECMG 2205/2208 12009KT
PROB40
TEMPO 2217/2224 23015G25KT TSRA BKN030CB
BECMG 2217/2219 20006KT
Pas de NOTAMs connus pour ce terrain.



MET'MAP, la Météo Aéronautique d'un coup d'oeil ! - Copyright ORBIFLY Décembre 2007 - Disclaimer

ORBIFLY MET'MAP TEAM :

Programmation & Développement : Alexandra Zaïnal
Conception & Développement : Baudouin d'Aumeries
Co-Programmation & Développement : Marc-Olivier Méhu
Soutien technique & logistique : Manuel Goepfert

Contact : metmap@orbifly.com




SOURCES & CREDITS :

   NOAA